Time;durP1;ratioP1;P1;durP2;ratioP2;P2;SDS_P1;SDS_P2;PMS_P1;PMS_P2;Temp;Humidity;BMP_temperature;BMP_pressure;BME280_temperature;BME280_humidity;BME280_pressure;Samples;Min_cycle;Max_cycle;Signal;HPM_P1;HPM_P2
2022/03/31 00:05:57;;;;;;;14.40;10.50;;;;;;;1.11;82.01;97117.30;432574;1271;98960;-41
2022/03/31 00:16:05;;;;;;;10.90;8.70;;;;;;;1.19;81.84;97117.39;432535;1271;112481;-43
2022/03/31 00:36:19;;;;;;;16.70;13.40;;;;;;;1.20;81.51;97113.10;432508;1271;99363;-40
2022/03/31 00:46:25;;;;;;;12.30;10.40;;;;;;;1.17;81.24;97110.34;432295;1270;109061;-41
2022/03/31 00:56:35;;;;;;;9.00;7.60;;;;;;;1.11;81.32;97119.30;432466;1271;99277;-42
2022/03/31 01:16:50;;;;;;;15.90;13.30;;;;;;;0.96;81.25;97117.48;432784;1269;108806;-41
2022/03/31 01:26:57;;;;;;;12.70;10.60;;;;;;;0.80;81.48;97117.61;432529;1270;99359;-41
2022/03/31 01:37:05;;;;;;;14.80;12.80;;;;;;;0.87;81.66;97116.17;432605;1270;108990;-40
2022/03/31 01:47:12;;;;;;;14.90;12.20;;;;;;;0.89;81.27;97124.22;432553;1271;99270;-41
2022/03/31 01:57:19;;;;;;;13.00;11.40;;;;;;;0.90;81.20;97119.25;432667;1271;112603;-40
2022/03/31 02:07:26;;;;;;;20.60;15.40;;;;;;;0.83;81.24;97120.16;432946;1270;108655;-41
2022/03/31 02:17:34;;;;;;;16.90;13.10;;;;;;;0.78;81.82;97119.70;432877;1270;99310;-42
2022/03/31 02:27:41;;;;;;;18.30;12.90;;;;;;;0.72;82.04;97119.11;432672;1271;108635;-45
2022/03/31 02:37:48;;;;;;;17.70;14.60;;;;;;;0.78;82.09;97123.46;432327;1271;99269;-40
2022/03/31 02:47:56;;;;;;;14.90;12.60;;;;;;;0.79;81.93;97126.66;432551;1271;111329;-40
2022/03/31 02:58:05;;;;;;;24.40;17.30;;;;;;;0.76;82.19;97123.38;432300;1271;108800;-42
2022/03/31 03:08:15;;;;;;;18.90;15.10;;;;;;;0.72;82.24;97127.91;432454;1271;99267;-43
2022/03/31 03:18:22;;;;;;;17.50;13.80;;;;;;;0.79;82.06;97126.89;432412;1271;108945;-41
2022/03/31 03:38:35;;;;;;;18.50;14.40;;;;;;;0.78;82.18;97122.77;432446;1270;112450;-41
2022/03/31 03:48:42;;;;;;;33.60;22.00;;;;;;;0.72;82.75;97120.83;432532;1271;108841;-41
2022/03/31 03:58:49;;;;;;;22.80;16.70;;;;;;;0.72;82.74;97122.19;433030;1270;99532;-41
2022/03/31 04:08:56;;;;;;;25.70;18.50;;;;;;;0.75;82.65;97127.48;433008;1270;112467;-41
2022/03/31 04:19:03;;;;;;;19.50;15.20;;;;;;;0.74;82.85;97130.80;433051;1268;108712;-43
2022/03/31 04:29:10;;;;;;;23.30;16.50;;;;;;;0.77;82.85;97143.08;433064;1270;98853;-40
2022/03/31 04:39:18;;;;;;;31.00;21.20;;;;;;;0.72;83.16;97149.40;433183;1270;108848;-40
2022/03/31 04:49:25;;;;;;;23.50;18.50;;;;;;;0.74;83.04;97157.17;432471;1270;99263;-43
2022/03/31 04:59:33;;;;;;;20.90;16.30;;;;;;;0.73;83.55;97135.33;432435;1270;113159;-41
2022/03/31 05:09:41;;;;;;;19.80;14.40;;;;;;;0.79;83.33;97141.19;433037;1270;108779;-41
2022/03/31 05:19:48;;;;;;;21.00;14.10;;;;;;;0.81;83.91;97139.59;433055;1270;99282;-40
2022/03/31 05:29:56;;;;;;;22.20;15.40;;;;;;;0.85;84.20;97152.73;433095;1269;108792;-43
2022/03/31 05:50:09;;;;;;;19.10;13.80;;;;;;;0.85;84.23;97177.40;432738;1270;111753;-40
2022/03/31 06:00:20;;;;;;;18.80;13.30;;;;;;;0.89;84.35;97179.79;432444;1270;107759;-40
2022/03/31 06:10:27;;;;;;;18.70;13.90;;;;;;;0.91;84.56;97177.70;432620;1269;99279;-41
2022/03/31 06:20:32;;;;;;;18.50;12.70;;;;;;;0.95;84.73;97177.27;432471;1270;108232;-40
2022/03/31 06:30:39;;;;;;;21.30;17.20;;;;;;;1.02;84.72;97177.61;432462;1270;99254;-40
2022/03/31 06:50:52;;;;;;;16.20;12.00;;;;;;;1.10;85.05;97184.38;432421;1269;107715;-40
2022/03/31 07:01:00;;;;;;;17.10;12.50;;;;;;;1.19;85.13;97195.66;432541;1269;99356;-41
2022/03/31 07:11:10;;;;;;;24.00;15.50;;;;;;;1.34;85.03;97188.47;433368;1269;108880;-41
2022/03/31 07:21:17;;;;;;;17.80;13.00;;;;;;;1.33;84.86;97174.38;433019;1270;99246;-41
2022/03/31 07:31:23;;;;;;;16.70;11.80;;;;;;;1.35;84.83;97186.83;433725;1269;112474;-42
2022/03/31 07:41:30;;;;;;;12.60;10.00;;;;;;;1.36;84.98;97192.95;433429;1269;106797;-39
2022/03/31 07:51:38;;;;;;;21.30;15.10;;;;;;;1.31;85.07;97203.20;433648;1268;98025;-41
2022/03/31 08:01:46;;;;;;;12.80;10.30;;;;;;;1.36;85.10;97208.90;433653;1270;113485;-43
2022/03/31 08:11:52;;;;;;;14.00;11.10;;;;;;;1.34;85.52;97222.58;433416;1270;108757;-40
2022/03/31 08:32:07;;;;;;;19.40;13.20;;;;;;;1.35;85.78;97233.46;433742;1270;108897;-42
2022/03/31 08:42:14;;;;;;;13.60;11.50;;;;;;;1.38;85.80;97238.50;433515;1269;99260;-41
2022/03/31 08:52:22;;;;;;;17.20;11.80;;;;;;;1.41;85.73;97245.74;433675;1269;112420;-41
2022/03/31 09:02:30;;;;;;;24.20;16.70;;;;;;;1.44;85.75;97244.55;433583;1269;109024;-40
2022/03/31 09:12:38;;;;;;;13.50;11.20;;;;;;;1.49;85.49;97248.05;429475;1270;5397359;-41
2022/03/31 09:23:05;;;;;;;15.60;11.30;;;;;;;1.57;85.63;97248.26;433614;1269;108876;-42
2022/03/31 09:33:13;;;;;;;23.10;15.70;;;;;;;1.56;85.84;97243.38;433798;1270;99385;-41
2022/03/31 09:43:20;;;;;;;20.20;13.90;;;;;;;1.62;85.80;97247.91;433392;1269;113310;-40
2022/03/31 10:03:40;;;;;;;17.50;14.00;;;;;;;1.67;86.11;97265.67;432826;1270;98863;-41
2022/03/31 10:13:50;;;;;;;27.50;17.80;;;;;;;1.65;86.11;97268.63;433009;1269;110393;-41
2022/03/31 10:34:22;;;;;;;34.20;20.40;;;;;;;1.71;86.16;97245.49;433141;1270;112361;-40
2022/03/31 10:44:29;;;;;;;26.30;17.90;;;;;;;1.72;86.01;97229.05;433034;1269;108790;-41
2022/03/31 10:54:36;;;;;;;23.00;16.20;;;;;;;1.77;86.12;97210.17;432971;1271;99246;-41
2022/03/31 11:04:45;;;;;;;38.70;23.80;;;;;;;1.77;86.37;97197.42;433175;1270;112156;-43
2022/03/31 11:15:11;;;;;;;27.20;18.40;;;;;;;1.75;86.40;97195.15;433165;1269;108784;-41
2022/03/31 11:25:24;;;;;;;28.50;18.50;;;;;;;1.81;86.56;97191.58;433052;1269;99237;-41
2022/03/31 11:35:32;;;;;;;26.20;18.50;;;;;;;1.88;86.82;97191.35;432971;1268;107983;-40
2022/03/31 11:45:42;;;;;;;24.80;17.00;;;;;;;1.96;86.77;97209.88;433353;1271;99244;-39
2022/03/31 11:55:57;;;;;;;28.80;18.70;;;;;;;1.95;86.75;97212.05;433283;1271;112431;-41
2022/03/31 12:16:11;;;;;;;31.10;20.50;;;;;;;2.01;86.60;97203.42;433202;1269;99274;-41
2022/03/31 12:36:31;;;;;;;37.40;22.20;;;;;;;2.01;86.53;97192.31;432940;1270;109465;-40
2022/03/31 12:46:42;;;;;;;26.80;18.80;;;;;;;2.07;86.63;97180.31;433124;1269;98081;-40
2022/03/31 13:07:06;;;;;;;42.10;21.60;;;;;;;2.05;86.92;97162.77;433079;1271;100067;-40
2022/03/31 13:17:16;;;;;;;25.80;17.80;;;;;;;2.05;86.61;97153.23;433133;1269;112397;-42
2022/03/31 13:27:23;;;;;;;26.10;16.20;;;;;;;2.06;86.63;97151.48;433025;1269;107802;-41
2022/03/31 13:37:30;;;;;;;26.70;16.30;;;;;;;2.08;86.90;97148.62;433285;1271;99363;-42
2022/03/31 13:47:37;;;;;;;43.50;26.80;;;;;;;2.03;87.08;97138.36;433114;1271;109398;-41
2022/03/31 14:08:07;;;;;;;28.00;17.30;;;;;;;2.00;87.12;97126.67;433248;1270;112412;-41
2022/03/31 14:18:15;;;;;;;34.60;19.80;;;;;;;1.98;87.28;97114.10;433000;1271;108622;-42
2022/03/31 14:28:22;;;;;;;35.60;21.30;;;;;;;2.00;87.11;97104.77;433261;1269;99254;-41
2022/03/31 14:38:30;;;;;;;35.80;21.70;;;;;;;1.96;87.09;97100.39;433128;1269;109223;-40
2022/03/31 14:48:36;;;;;;;29.90;18.50;;;;;;;1.99;87.01;97093.23;433103;1270;99254;-41
2022/03/31 15:08:51;;;;;;;37.40;23.00;;;;;;;1.98;87.00;97084.46;433273;1269;107661;-41
2022/03/31 15:18:59;;;;;;;29.50;20.30;;;;;;;1.94;87.03;97073.67;433206;1269;99220;-41
2022/03/31 15:29:08;;;;;;;27.90;18.10;;;;;;;1.97;86.97;97070.84;433173;1271;108907;-42
2022/03/31 15:39:15;;;;;;;30.60;21.80;;;;;;;2.02;86.87;97072.83;433204;1271;98831;-42
2022/03/31 15:49:44;;;;;;;39.70;24.50;;;;;;;1.97;87.17;97072.36;433169;1270;111432;-41
2022/03/31 15:59:52;;;;;;;33.90;21.90;;;;;;;1.98;87.11;97067.85;433171;1271;108874;-40
2022/03/31 16:09:59;;;;;;;32.80;21.00;;;;;;;1.97;86.97;97070.27;433126;1270;98795;-42
2022/03/31 16:20:06;;;;;;;35.60;22.70;;;;;;;1.94;86.93;97070.46;433220;1270;108845;-41
2022/03/31 16:30:13;;;;;;;32.50;21.00;;;;;;;1.90;86.92;97067.40;433251;1271;98851;-40
2022/03/31 16:40:20;;;;;;;35.90;23.10;;;;;;;1.79;86.86;97062.58;433218;1270;112456;-42
2022/03/31 16:50:28;;;;;;;33.90;23.50;;;;;;;1.71;87.04;97068.83;433085;1271;108872;-41
2022/03/31 17:00:36;;;;;;;36.80;22.60;;;;;;;1.64;87.15;97068.70;433279;1270;99281;-40
2022/03/31 17:10:43;;;;;;;32.80;22.90;;;;;;;1.61;87.24;97068.95;433004;1270;107813;-41
2022/03/31 17:20:51;;;;;;;34.70;21.50;;;;;;;1.57;87.13;97069.98;432965;1270;98023;-43
2022/03/31 17:30:59;;;;;;;26.40;20.20;;;;;;;1.50;87.53;97069.88;432918;1269;112444;-40
2022/03/31 17:41:07;;;;;;;31.70;22.10;;;;;;;1.46;88.01;97067.14;432924;1269;109586;-41
2022/03/31 17:51:22;;;;;;;34.10;21.50;;;;;;;1.45;87.94;97066.88;432731;1269;99283;-42
2022/03/31 18:11:36;;;;;;;27.20;18.60;;;;;;;1.42;88.21;97079.90;432902;1271;99276;-42
2022/03/31 18:42:21;;;;;;;26.70;18.10;;;;;;;1.25;89.02;97074.47;432762;1270;99283;-42
2022/03/31 18:52:29;;;;;;;35.30;20.90;;;;;;;1.26;89.11;97072.91;432979;1271;108889;-41
2022/03/31 19:02:37;;;;;;;23.90;17.00;;;;;;;1.28;89.47;97072.45;432967;1271;98882;-40
2022/03/31 19:12:44;;;;;;;20.80;15.20;;;;;;;1.29;89.72;97068.60;433105;1269;112208;-40
2022/03/31 19:22:51;;;;;;;17.50;14.00;;;;;;;1.28;89.98;97060.56;432778;1271;108676;-41
2022/03/31 19:33:00;;;;;;;15.30;12.00;;;;;;;1.26;90.21;97066.70;432775;1270;98882;-41
2022/03/31 19:43:06;;;;;;;16.30;11.10;;;;;;;1.21;90.10;97072.70;432939;1269;108863;-42
2022/03/31 19:53:12;;;;;;;18.10;11.90;;;;;;;1.16;90.21;97061.61;432852;1271;98892;-41
2022/03/31 20:03:18;;;;;;;17.70;12.90;;;;;;;1.10;90.08;97050.38;432795;1269;112310;-40
2022/03/31 20:13:27;;;;;;;18.50;12.70;;;;;;;1.05;90.36;97037.68;432974;1269;109072;-44
2022/03/31 20:33:41;;;;;;;16.80;11.40;;;;;;;0.90;90.57;97013.08;432939;1269;108842;-42
2022/03/31 20:43:47;;;;;;;19.00;11.50;;;;;;;0.82;90.74;97003.91;432814;1270;98854;-40
2022/03/31 20:53:54;;;;;;;15.40;10.90;;;;;;;0.75;90.93;96997.20;432821;1269;112485;-40
2022/03/31 21:04:01;;;;;;;17.40;10.60;;;;;;;0.69;90.89;96993.21;432791;1270;108952;-40
2022/03/31 21:14:09;;;;;;;12.80;9.00;;;;;;;0.64;91.02;96987.98;428784;1271;5385225;-39
2022/03/31 21:24:17;;;;;;;12.20;9.60;;;;;;;0.61;91.07;96983.92;432722;1271;109080;-42
2022/03/31 21:34:25;;;;;;;14.70;10.40;;;;;;;0.57;91.13;96976.13;432894;1271;98017;-40
2022/03/31 21:44:30;;;;;;;15.40;11.10;;;;;;;0.53;91.12;96970.64;432751;1271;114298;-41
2022/03/31 21:54:38;;;;;;;13.20;9.60;;;;;;;0.51;91.18;96965.45;432668;1269;108795;-41
2022/03/31 22:04:45;;;;;;;14.20;8.90;;;;;;;0.51;90.99;96954.77;432907;1270;99839;-42
2022/03/31 22:14:53;;;;;;;12.90;9.70;;;;;;;0.47;91.16;96948.52;433205;1269;108841;-41
2022/03/31 22:25:00;;;;;;;11.60;9.60;;;;;;;0.44;91.18;96942.17;432531;1270;98901;-40
2022/03/31 22:35:08;;;;;;;15.10;10.00;;;;;;;0.42;91.14;96938.63;433190;1271;112588;-40
2022/03/31 22:45:15;;;;;;;12.50;10.10;;;;;;;0.40;91.20;96925.15;433031;1269;109136;-40
2022/03/31 22:55:21;;;;;;;10.80;8.00;;;;;;;0.37;91.33;96919.68;433206;1269;99265;-41
2022/03/31 23:05:29;;;;;;;12.80;8.20;;;;;;;0.38;91.35;96910.68;433105;1270;109189;-41
2022/03/31 23:15:36;;;;;;;11.80;8.90;;;;;;;0.37;91.20;96903.21;433336;1270;99305;-40
2022/03/31 23:25:44;;;;;;;10.30;9.20;;;;;;;0.37;91.33;96889.89;433159;1271;111550;-41
2022/03/31 23:35:52;;;;;;;12.60;10.10;;;;;;;0.38;91.18;96883.69;432690;1270;108791;-43
2022/03/31 23:45:59;;;;;;;17.60;13.90;;;;;;;0.35;91.33;96876.91;433207;1269;98982;-40
2022/03/31 23:56:06;;;;;;;17.50;13.60;;;;;;;0.33;91.24;96874.76;433121;1269;107831;-44
